sensor_id;sensor_type;location;lat;lon;timestamp;P1;durP1;ratioP1;P2;durP2;ratioP2
11655;SDS011;5884;43.618;1.438;2023-06-26T04:47:40;14.70;;;10.03;;
11655;SDS011;5884;43.618;1.438;2023-06-26T04:50:07;17.97;;;11.60;;
11655;SDS011;5884;43.618;1.438;2023-06-26T04:52:35;13.67;;;9.73;;
11655;SDS011;5884;43.618;1.438;2023-06-26T04:55:02;15.83;;;10.03;;
11655;SDS011;5884;43.618;1.438;2023-06-26T04:57:30;20.30;;;10.03;;
11655;SDS011;5884;43.618;1.438;2023-06-26T04:59:58;16.77;;;10.53;;
11655;SDS011;5884;43.618;1.438;2023-06-26T05:02:26;15.13;;;9.90;;
11655;SDS011;5884;43.618;1.438;2023-06-26T05:04:54;18.93;;;10.10;;
11655;SDS011;5884;43.618;1.438;2023-06-26T05:07:21;20.07;;;10.27;;
11655;SDS011;5884;43.618;1.438;2023-06-26T05:09:49;16.17;;;9.30;;
11655;SDS011;5884;43.618;1.438;2023-06-26T05:12:16;14.63;;;9.27;;
11655;SDS011;5884;43.618;1.438;2023-06-26T05:14:43;16.10;;;10.00;;
11655;SDS011;5884;43.618;1.438;2023-06-26T05:17:11;16.23;;;10.20;;
11655;SDS011;5884;43.618;1.438;2023-06-26T05:19:41;17.23;;;9.90;;
11655;SDS011;5884;43.618;1.438;2023-06-26T05:22:09;16.93;;;9.83;;
11655;SDS011;5884;43.618;1.438;2023-06-26T05:24:37;22.97;;;9.37;;
11655;SDS011;5884;43.618;1.438;2023-06-26T05:27:07;16.03;;;9.23;;
11655;SDS011;5884;43.618;1.438;2023-06-26T05:29:37;15.00;;;9.10;;
11655;SDS011;5884;43.618;1.438;2023-06-26T05:32:05;14.90;;;9.10;;
11655;SDS011;5884;43.618;1.438;2023-06-26T05:34:34;12.80;;;8.93;;
11655;SDS011;5884;43.618;1.438;2023-06-26T05:37:04;20.07;;;8.77;;
11655;SDS011;5884;43.618;1.438;2023-06-26T05:39:33;13.43;;;8.70;;
11655;SDS011;5884;43.618;1.438;2023-06-26T05:42:01;16.40;;;8.50;;
11655;SDS011;5884;43.618;1.438;2023-06-26T05:44:29;19.47;;;9.67;;
11655;SDS011;5884;43.618;1.438;2023-06-26T05:46:57;18.33;;;8.17;;
11655;SDS011;5884;43.618;1.438;2023-06-26T05:49:24;18.57;;;9.37;;
11655;SDS011;5884;43.618;1.438;2023-06-26T05:51:51;18.70;;;9.53;;
11655;SDS011;5884;43.618;1.438;2023-06-26T05:54:21;18.93;;;10.03;;
11655;SDS011;5884;43.618;1.438;2023-06-26T05:56:50;14.77;;;8.67;;
11655;SDS011;5884;43.618;1.438;2023-06-26T05:59:24;17.17;;;8.80;;
11655;SDS011;5884;43.618;1.438;2023-06-26T06:01:53;17.07;;;8.93;;
11655;SDS011;5884;43.618;1.438;2023-06-26T06:04:20;17.13;;;9.40;;
11655;SDS011;5884;43.618;1.438;2023-06-26T06:06:47;15.50;;;8.43;;
11655;SDS011;5884;43.618;1.438;2023-06-26T06:09:15;15.40;;;9.67;;
11655;SDS011;5884;43.618;1.438;2023-06-26T06:11:43;16.70;;;9.33;;
11655;SDS011;5884;43.618;1.438;2023-06-26T06:14:10;15.37;;;8.10;;
11655;SDS011;5884;43.618;1.438;2023-06-26T06:16:38;16.73;;;9.13;;
11655;SDS011;5884;43.618;1.438;2023-06-26T06:19:05;18.07;;;9.50;;
11655;SDS011;5884;43.618;1.438;2023-06-26T06:21:32;19.63;;;8.23;;
11655;SDS011;5884;43.618;1.438;2023-06-26T06:24:00;14.27;;;8.37;;
11655;SDS011;5884;43.618;1.438;2023-06-26T06:26:28;15.33;;;8.67;;
11655;SDS011;5884;43.618;1.438;2023-06-26T06:28:56;16.53;;;8.60;;
11655;SDS011;5884;43.618;1.438;2023-06-26T06:31:24;15.07;;;8.37;;
11655;SDS011;5884;43.618;1.438;2023-06-26T06:33:53;13.60;;;8.17;;
11655;SDS011;5884;43.618;1.438;2023-06-26T06:36:20;15.47;;;8.40;;
11655;SDS011;5884;43.618;1.438;2023-06-26T06:38:47;13.20;;;8.13;;
11655;SDS011;5884;43.618;1.438;2023-06-26T06:41:15;19.10;;;8.43;;
11655;SDS011;5884;43.618;1.438;2023-06-26T06:43:42;15.77;;;8.50;;
11655;SDS011;5884;43.618;1.438;2023-06-26T06:46:11;14.20;;;8.03;;
11655;SDS011;5884;43.618;1.438;2023-06-26T06:48:38;16.70;;;7.20;;
11655;SDS011;5884;43.618;1.438;2023-06-26T06:51:05;17.13;;;7.47;;
11655;SDS011;5884;43.618;1.438;2023-06-26T06:53:32;14.63;;;7.33;;
11655;SDS011;5884;43.618;1.438;2023-06-26T06:56:00;13.63;;;7.63;;
11655;SDS011;5884;43.618;1.438;2023-06-26T06:58:27;13.50;;;7.13;;
11655;SDS011;5884;43.618;1.438;2023-06-26T07:00:56;13.37;;;7.27;;
11655;SDS011;5884;43.618;1.438;2023-06-26T07:03:24;12.07;;;6.50;;
11655;SDS011;5884;43.618;1.438;2023-06-26T07:05:52;15.80;;;6.93;;
11655;SDS011;5884;43.618;1.438;2023-06-26T07:08:19;11.43;;;7.10;;
11655;SDS011;5884;43.618;1.438;2023-06-26T07:10:46;10.67;;;6.70;;
11655;SDS011;5884;43.618;1.438;2023-06-26T07:13:14;11.97;;;6.70;;
11655;SDS011;5884;43.618;1.438;2023-06-26T07:15:41;11.47;;;6.63;;
11655;SDS011;5884;43.618;1.438;2023-06-26T07:18:09;9.77;;;6.10;;
11655;SDS011;5884;43.618;1.438;2023-06-26T07:20:37;11.50;;;6.80;;
11655;SDS011;5884;43.618;1.438;2023-06-26T07:23:04;15.60;;;7.23;;
11655;SDS011;5884;43.618;1.438;2023-06-26T07:25:31;11.17;;;6.03;;
11655;SDS011;5884;43.618;1.438;2023-06-26T07:27:59;10.53;;;5.97;;
11655;SDS011;5884;43.618;1.438;2023-06-26T07:30:26;12.73;;;6.57;;
11655;SDS011;5884;43.618;1.438;2023-06-26T07:32:53;9.60;;;5.93;;
11655;SDS011;5884;43.618;1.438;2023-06-26T07:35:20;14.17;;;6.27;;
11655;SDS011;5884;43.618;1.438;2023-06-26T07:37:49;13.83;;;5.70;;
11655;SDS011;5884;43.618;1.438;2023-06-26T07:40:17;10.13;;;6.20;;
11655;SDS011;5884;43.618;1.438;2023-06-26T07:42:44;9.70;;;6.20;;
11655;SDS011;5884;43.618;1.438;2023-06-26T07:45:11;13.00;;;6.50;;
11655;SDS011;5884;43.618;1.438;2023-06-26T07:47:38;9.97;;;5.97;;
11655;SDS011;5884;43.618;1.438;2023-06-26T07:50:06;7.77;;;5.97;;
11655;SDS011;5884;43.618;1.438;2023-06-26T07:52:34;10.67;;;6.30;;
11655;SDS011;5884;43.618;1.438;2023-06-26T07:55:03;8.90;;;6.17;;
11655;SDS011;5884;43.618;1.438;2023-06-26T07:57:31;14.27;;;6.50;;
11655;SDS011;5884;43.618;1.438;2023-06-26T07:59:58;9.73;;;6.60;;
11655;SDS011;5884;43.618;1.438;2023-06-26T08:02:26;12.00;;;6.27;;
11655;SDS011;5884;43.618;1.438;2023-06-26T08:04:54;12.70;;;6.33;;
11655;SDS011;5884;43.618;1.438;2023-06-26T08:07:21;10.80;;;6.33;;
11655;SDS011;5884;43.618;1.438;2023-06-26T08:09:48;12.83;;;6.20;;
11655;SDS011;5884;43.618;1.438;2023-06-26T08:12:16;13.40;;;6.37;;
11655;SDS011;5884;43.618;1.438;2023-06-26T08:14:44;14.37;;;6.70;;
11655;SDS011;5884;43.618;1.438;2023-06-26T08:17:11;15.60;;;6.17;;
11655;SDS011;5884;43.618;1.438;2023-06-26T08:19:38;14.07;;;6.03;;
11655;SDS011;5884;43.618;1.438;2023-06-26T08:22:05;10.83;;;6.07;;
11655;SDS011;5884;43.618;1.438;2023-06-26T08:24:32;12.87;;;5.90;;
11655;SDS011;5884;43.618;1.438;2023-06-26T08:27:02;11.80;;;5.87;;
11655;SDS011;5884;43.618;1.438;2023-06-26T08:29:31;13.30;;;6.43;;
11655;SDS011;5884;43.618;1.438;2023-06-26T08:31:58;9.70;;;5.63;;
11655;SDS011;5884;43.618;1.438;2023-06-26T08:34:27;8.17;;;5.30;;
11655;SDS011;5884;43.618;1.438;2023-06-26T08:36:54;13.10;;;6.23;;
11655;SDS011;5884;43.618;1.438;2023-06-26T08:39:21;11.97;;;5.93;;
11655;SDS011;5884;43.618;1.438;2023-06-26T08:41:48;12.03;;;5.23;;
11655;SDS011;5884;43.618;1.438;2023-06-26T08:44:16;12.80;;;6.00;;
11655;SDS011;5884;43.618;1.438;2023-06-26T08:46:44;10.07;;;6.27;;
11655;SDS011;5884;43.618;1.438;2023-06-26T08:49:14;11.57;;;5.97;;
11655;SDS011;5884;43.618;1.438;2023-06-26T08:51:49;12.23;;;6.43;;
11655;SDS011;5884;43.618;1.438;2023-06-26T08:54:26;10.90;;;5.77;;
11655;SDS011;5884;43.618;1.438;2023-06-26T08:56:58;10.77;;;5.67;;
11655;SDS011;5884;43.618;1.438;2023-06-26T08:59:26;10.07;;;5.50;;
11655;SDS011;5884;43.618;1.438;2023-06-26T09:01:56;15.63;;;6.70;;
11655;SDS011;5884;43.618;1.438;2023-06-26T09:04:25;12.70;;;6.00;;
11655;SDS011;5884;43.618;1.438;2023-06-26T09:06:52;12.10;;;6.40;;
11655;SDS011;5884;43.618;1.438;2023-06-26T09:09:19;8.90;;;5.90;;
11655;SDS011;5884;43.618;1.438;2023-06-26T09:11:46;8.80;;;5.47;;
11655;SDS011;5884;43.618;1.438;2023-06-26T09:14:13;7.80;;;5.30;;
11655;SDS011;5884;43.618;1.438;2023-06-26T09:16:41;10.73;;;6.03;;
11655;SDS011;5884;43.618;1.438;2023-06-26T09:19:10;10.63;;;5.50;;
11655;SDS011;5884;43.618;1.438;2023-06-26T09:21:39;8.73;;;5.73;;
11655;SDS011;5884;43.618;1.438;2023-06-26T09:24:07;9.10;;;5.77;;
11655;SDS011;5884;43.618;1.438;2023-06-26T09:26:35;9.30;;;6.07;;
11655;SDS011;5884;43.618;1.438;2023-06-26T09:29:04;9.57;;;5.70;;
11655;SDS011;5884;43.618;1.438;2023-06-26T09:31:32;12.40;;;5.83;;
11655;SDS011;5884;43.618;1.438;2023-06-26T09:34:01;8.13;;;5.70;;
11655;SDS011;5884;43.618;1.438;2023-06-26T09:36:30;6.90;;;5.40;;
11655;SDS011;5884;43.618;1.438;2023-06-26T09:39:00;13.00;;;6.77;;
11655;SDS011;5884;43.618;1.438;2023-06-26T09:41:28;10.67;;;6.23;;
11655;SDS011;5884;43.618;1.438;2023-06-26T09:43:57;9.53;;;6.03;;
11655;SDS011;5884;43.618;1.438;2023-06-26T09:46:29;11.43;;;5.87;;
11655;SDS011;5884;43.618;1.438;2023-06-26T09:48:58;9.33;;;5.87;;
11655;SDS011;5884;43.618;1.438;2023-06-26T09:51:30;10.37;;;5.90;;
11655;SDS011;5884;43.618;1.438;2023-06-26T09:53:58;7.60;;;5.37;;
11655;SDS011;5884;43.618;1.438;2023-06-26T09:56:26;11.40;;;5.90;;
11655;SDS011;5884;43.618;1.438;2023-06-26T09:58:55;11.80;;;6.20;;
11655;SDS011;5884;43.618;1.438;2023-06-26T10:01:24;10.40;;;6.20;;
11655;SDS011;5884;43.618;1.438;2023-06-26T10:03:51;11.33;;;6.07;;
11655;SDS011;5884;43.618;1.438;2023-06-26T10:06:20;10.20;;;6.10;;
11655;SDS011;5884;43.618;1.438;2023-06-26T10:08:54;8.73;;;5.60;;
11655;SDS011;5884;43.618;1.438;2023-06-26T10:11:24;14.20;;;6.57;;
11655;SDS011;5884;43.618;1.438;2023-06-26T10:13:58;8.90;;;5.70;;
11655;SDS011;5884;43.618;1.438;2023-06-26T10:16:27;11.83;;;5.30;;
11655;SDS011;5884;43.618;1.438;2023-06-26T10:18:58;13.43;;;6.37;;
11655;SDS011;5884;43.618;1.438;2023-06-26T10:21:29;12.60;;;5.70;;
11655;SDS011;5884;43.618;1.438;2023-06-26T10:24:02;15.20;;;5.90;;
11655;SDS011;5884;43.618;1.438;2023-06-26T10:26:30;10.13;;;6.17;;
11655;SDS011;5884;43.618;1.438;2023-06-26T10:29:02;11.00;;;6.03;;
11655;SDS011;5884;43.618;1.438;2023-06-26T10:31:31;9.07;;;5.60;;
11655;SDS011;5884;43.618;1.438;2023-06-26T10:34:00;11.67;;;6.43;;
11655;SDS011;5884;43.618;1.438;2023-06-26T10:36:28;9.63;;;6.40;;
11655;SDS011;5884;43.618;1.438;2023-06-26T10:38:58;11.70;;;6.03;;
11655;SDS011;5884;43.618;1.438;2023-06-26T10:41:36;11.57;;;6.33;;
11655;SDS011;5884;43.618;1.438;2023-06-26T10:44:08;10.73;;;6.07;;
11655;SDS011;5884;43.618;1.438;2023-06-26T10:49:24;11.93;;;6.57;;
11655;SDS011;5884;43.618;1.438;2023-06-26T10:51:53;10.20;;;5.90;;
11655;SDS011;5884;43.618;1.438;2023-06-26T10:54:27;10.47;;;5.80;;
11655;SDS011;5884;43.618;1.438;2023-06-26T10:56:57;10.07;;;6.50;;
11655;SDS011;5884;43.618;1.438;2023-06-26T10:59:26;11.20;;;6.20;;
11655;SDS011;5884;43.618;1.438;2023-06-26T11:01:56;9.77;;;6.30;;
11655;SDS011;5884;43.618;1.438;2023-06-26T11:04:36;10.50;;;6.17;;
11655;SDS011;5884;43.618;1.438;2023-06-26T11:07:17;13.00;;;6.33;;
11655;SDS011;5884;43.618;1.438;2023-06-26T11:09:55;8.37;;;5.63;;
11655;SDS011;5884;43.618;1.438;2023-06-26T11:12:33;8.27;;;5.07;;
11655;SDS011;5884;43.618;1.438;2023-06-26T11:15:02;11.00;;;5.63;;
11655;SDS011;5884;43.618;1.438;2023-06-26T11:17:30;10.03;;;5.60;;
11655;SDS011;5884;43.618;1.438;2023-06-26T11:19:58;8.43;;;4.70;;
11655;SDS011;5884;43.618;1.438;2023-06-26T11:22:25;6.80;;;5.03;;
11655;SDS011;5884;43.618;1.438;2023-06-26T11:24:55;10.13;;;5.03;;
11655;SDS011;5884;43.618;1.438;2023-06-26T11:27:30;10.00;;;5.30;;
11655;SDS011;5884;43.618;1.438;2023-06-26T11:29:58;9.07;;;5.60;;
11655;SDS011;5884;43.618;1.438;2023-06-26T11:32:26;9.83;;;4.53;;
11655;SDS011;5884;43.618;1.438;2023-06-26T11:34:54;12.10;;;5.27;;
11655;SDS011;5884;43.618;1.438;2023-06-26T11:37:21;6.50;;;4.40;;
11655;SDS011;5884;43.618;1.438;2023-06-26T11:39:49;5.90;;;4.60;;
11655;SDS011;5884;43.618;1.438;2023-06-26T11:42:18;7.23;;;5.37;;
11655;SDS011;5884;43.618;1.438;2023-06-26T11:44:47;8.50;;;5.47;;
11655;SDS011;5884;43.618;1.438;2023-06-26T11:47:14;9.83;;;6.07;;
11655;SDS011;5884;43.618;1.438;2023-06-26T11:49:43;12.17;;;5.80;;
11655;SDS011;5884;43.618;1.438;2023-06-26T11:52:11;10.27;;;5.30;;
11655;SDS011;5884;43.618;1.438;2023-06-26T11:54:39;9.73;;;5.40;;
11655;SDS011;5884;43.618;1.438;2023-06-26T11:57:06;13.63;;;6.07;;
11655;SDS011;5884;43.618;1.438;2023-06-26T11:59:35;9.53;;;5.40;;
11655;SDS011;5884;43.618;1.438;2023-06-26T12:02:05;9.40;;;5.40;;
11655;SDS011;5884;43.618;1.438;2023-06-26T12:04:34;6.37;;;5.00;;
11655;SDS011;5884;43.618;1.438;2023-06-26T12:07:04;7.03;;;4.80;;
11655;SDS011;5884;43.618;1.438;2023-06-26T12:09:33;9.83;;;4.97;;
11655;SDS011;5884;43.618;1.438;2023-06-26T12:12:05;7.10;;;5.40;;
11655;SDS011;5884;43.618;1.438;2023-06-26T12:14:36;6.37;;;4.93;;
11655;SDS011;5884;43.618;1.438;2023-06-26T12:17:04;9.20;;;5.70;;
11655;SDS011;5884;43.618;1.438;2023-06-26T12:19:33;10.70;;;5.83;;
11655;SDS011;5884;43.618;1.438;2023-06-26T12:22:05;6.93;;;5.40;;
11655;SDS011;5884;43.618;1.438;2023-06-26T12:24:35;9.70;;;5.80;;
11655;SDS011;5884;43.618;1.438;2023-06-26T12:27:07;9.10;;;5.90;;
11655;SDS011;5884;43.618;1.438;2023-06-26T12:29:37;8.67;;;6.47;;
11655;SDS011;5884;43.618;1.438;2023-06-26T12:32:08;7.37;;;6.10;;
11655;SDS011;5884;43.618;1.438;2023-06-26T12:34:36;8.93;;;6.10;;
11655;SDS011;5884;43.618;1.438;2023-06-26T12:37:06;9.17;;;5.47;;
11655;SDS011;5884;43.618;1.438;2023-06-26T12:39:45;12.47;;;5.80;;
11655;SDS011;5884;43.618;1.438;2023-06-26T12:42:15;12.63;;;5.87;;
11655;SDS011;5884;43.618;1.438;2023-06-26T12:44:44;8.37;;;5.33;;
11655;SDS011;5884;43.618;1.438;2023-06-26T12:47:13;10.17;;;5.53;;
11655;SDS011;5884;43.618;1.438;2023-06-26T12:49:42;12.47;;;5.80;;
11655;SDS011;5884;43.618;1.438;2023-06-26T12:52:11;9.53;;;5.90;;
11655;SDS011;5884;43.618;1.438;2023-06-26T12:54:40;9.33;;;5.87;;
11655;SDS011;5884;43.618;1.438;2023-06-26T12:57:09;10.03;;;5.53;;
11655;SDS011;5884;43.618;1.438;2023-06-26T12:59:39;8.40;;;5.40;;
11655;SDS011;5884;43.618;1.438;2023-06-26T13:02:08;8.70;;;5.33;;
11655;SDS011;5884;43.618;1.438;2023-06-26T13:04:37;7.93;;;5.43;;
11655;SDS011;5884;43.618;1.438;2023-06-26T13:07:06;9.90;;;5.60;;
11655;SDS011;5884;43.618;1.438;2023-06-26T13:09:33;9.70;;;5.30;;
11655;SDS011;5884;43.618;1.438;2023-06-26T13:12:02;7.43;;;5.03;;
11655;SDS011;5884;43.618;1.438;2023-06-26T13:14:30;7.17;;;5.10;;
11655;SDS011;5884;43.618;1.438;2023-06-26T13:16:57;8.83;;;5.07;;
11655;SDS011;5884;43.618;1.438;2023-06-26T13:19:27;6.47;;;5.37;;
11655;SDS011;5884;43.618;1.438;2023-06-26T13:21:54;8.47;;;5.13;;
11655;SDS011;5884;43.618;1.438;2023-06-26T13:24:22;9.93;;;5.67;;
11655;SDS011;5884;43.618;1.438;2023-06-26T13:26:49;12.10;;;5.53;;
11655;SDS011;5884;43.618;1.438;2023-06-26T13:29:17;9.38;;;5.43;;
11655;SDS011;5884;43.618;1.438;2023-06-26T13:31:44;9.75;;;5.53;;
11655;SDS011;5884;43.618;1.438;2023-06-26T13:34:19;9.10;;;5.13;;
11655;SDS011;5884;43.618;1.438;2023-06-26T13:36:49;8.45;;;5.22;;
11655;SDS011;5884;43.618;1.438;2023-06-26T13:39:17;9.97;;;5.00;;
11655;SDS011;5884;43.618;1.438;2023-06-26T13:41:44;10.05;;;5.10;;
11655;SDS011;5884;43.618;1.438;2023-06-26T13:44:12;6.57;;;5.10;;
11655;SDS011;5884;43.618;1.438;2023-06-26T13:46:39;6.95;;;5.10;;
11655;SDS011;5884;43.618;1.438;2023-06-26T13:49:06;8.13;;;5.22;;
11655;SDS011;5884;43.618;1.438;2023-06-26T13:51:33;5.13;;;4.63;;
11655;SDS011;5884;43.618;1.438;2023-06-26T13:54:02;8.27;;;5.25;;
11655;SDS011;5884;43.618;1.438;2023-06-26T13:56:29;6.80;;;4.72;;
11655;SDS011;5884;43.618;1.438;2023-06-26T13:58:56;7.93;;;4.57;;
11655;SDS011;5884;43.618;1.438;2023-06-26T14:01:24;7.93;;;5.15;;
11655;SDS011;5884;43.618;1.438;2023-06-26T14:03:51;7.93;;;5.20;;
11655;SDS011;5884;43.618;1.438;2023-06-26T14:06:19;8.65;;;5.75;;
11655;SDS011;5884;43.618;1.438;2023-06-26T14:08:46;6.90;;;5.18;;
11655;SDS011;5884;43.618;1.438;2023-06-26T14:11:15;10.90;;;5.43;;
11655;SDS011;5884;43.618;1.438;2023-06-26T14:13:44;6.67;;;4.80;;
11655;SDS011;5884;43.618;1.438;2023-06-26T14:16:11;5.93;;;4.88;;
11655;SDS011;5884;43.618;1.438;2023-06-26T14:18:40;6.40;;;4.63;;
11655;SDS011;5884;43.618;1.438;2023-06-26T14:21:07;6.20;;;4.70;;
11655;SDS011;5884;43.618;1.438;2023-06-26T14:23:36;7.13;;;4.50;;
11655;SDS011;5884;43.618;1.438;2023-06-26T14:26:03;6.30;;;4.63;;
11655;SDS011;5884;43.618;1.438;2023-06-26T14:28:32;6.40;;;4.45;;
11655;SDS011;5884;43.618;1.438;2023-06-26T14:30:59;5.72;;;5.10;;
11655;SDS011;5884;43.618;1.438;2023-06-26T14:33:26;6.00;;;4.40;;
11655;SDS011;5884;43.618;1.438;2023-06-26T14:35:53;6.25;;;4.32;;
11655;SDS011;5884;43.618;1.438;2023-06-26T14:38:20;6.10;;;4.20;;
11655;SDS011;5884;43.618;1.438;2023-06-26T14:40:48;8.98;;;4.45;;
11655;SDS011;5884;43.618;1.438;2023-06-26T14:43:15;6.57;;;4.55;;
11655;SDS011;5884;43.618;1.438;2023-06-26T14:45:43;6.60;;;4.78;;
11655;SDS011;5884;43.618;1.438;2023-06-26T14:48:11;7.80;;;4.32;;
11655;SDS011;5884;43.618;1.438;2023-06-26T14:50:38;6.55;;;4.80;;
11655;SDS011;5884;43.618;1.438;2023-06-26T14:53:05;8.40;;;4.10;;
11655;SDS011;5884;43.618;1.438;2023-06-26T14:55:32;6.25;;;4.50;;
11655;SDS011;5884;43.618;1.438;2023-06-26T14:57:59;6.25;;;4.22;;
11655;SDS011;5884;43.618;1.438;2023-06-26T15:00:27;7.30;;;4.50;;
11655;SDS011;5884;43.618;1.438;2023-06-26T15:02:55;8.23;;;5.80;;
11655;SDS011;5884;43.618;1.438;2023-06-26T15:05:23;5.68;;;4.50;;
11655;SDS011;5884;43.618;1.438;2023-06-26T15:07:51;6.53;;;5.03;;
11655;SDS011;5884;43.618;1.438;2023-06-26T15:10:18;7.95;;;5.45;;
11655;SDS011;5884;43.618;1.438;2023-06-26T15:12:46;6.93;;;4.75;;
11655;SDS011;5884;43.618;1.438;2023-06-26T15:15:14;5.90;;;4.18;;
11655;SDS011;5884;43.618;1.438;2023-06-26T15:17:42;7.45;;;4.50;;
11655;SDS011;5884;43.618;1.438;2023-06-26T15:20:11;6.60;;;4.25;;
11655;SDS011;5884;43.618;1.438;2023-06-26T15:22:38;7.63;;;4.03;;
11655;SDS011;5884;43.618;1.438;2023-06-26T15:25:06;9.35;;;4.55;;
11655;SDS011;5884;43.618;1.438;2023-06-26T15:27:34;9.77;;;4.55;;
11655;SDS011;5884;43.618;1.438;2023-06-26T15:30:01;13.13;;;4.95;;
11655;SDS011;5884;43.618;1.438;2023-06-26T15:32:30;6.40;;;4.10;;
11655;SDS011;5884;43.618;1.438;2023-06-26T15:34:58;8.55;;;4.25;;
11655;SDS011;5884;43.618;1.438;2023-06-26T15:37:26;5.55;;;4.75;;
11655;SDS011;5884;43.618;1.438;2023-06-26T15:39:54;5.93;;;5.00;;
11655;SDS011;5884;43.618;1.438;2023-06-26T15:42:21;6.40;;;4.90;;
11655;SDS011;5884;43.618;1.438;2023-06-26T15:44:53;9.27;;;5.13;;
11655;SDS011;5884;43.618;1.438;2023-06-26T15:47:20;7.70;;;4.50;;
11655;SDS011;5884;43.618;1.438;2023-06-26T15:49:47;9.60;;;5.10;;
11655;SDS011;5884;43.618;1.438;2023-06-26T15:52:14;6.82;;;4.97;;
11655;SDS011;5884;43.618;1.438;2023-06-26T15:54:43;8.30;;;5.37;;
11655;SDS011;5884;43.618;1.438;2023-06-26T15:57:10;7.05;;;5.03;;
11655;SDS011;5884;43.618;1.438;2023-06-26T15:59:37;9.27;;;5.07;;
11655;SDS011;5884;43.618;1.438;2023-06-26T16:02:05;9.88;;;5.40;;
11655;SDS011;5884;43.618;1.438;2023-06-26T16:04:32;6.53;;;5.22;;
11655;SDS011;5884;43.618;1.438;2023-06-26T16:07:00;10.02;;;5.05;;
11655;SDS011;5884;43.618;1.438;2023-06-26T16:09:27;8.85;;;4.90;;
11655;SDS011;5884;43.618;1.438;2023-06-26T16:11:59;10.18;;;5.30;;
11655;SDS011;5884;43.618;1.438;2023-06-26T16:14:26;10.05;;;5.90;;
11655;SDS011;5884;43.618;1.438;2023-06-26T16:16:53;8.70;;;5.22;;
11655;SDS011;5884;43.618;1.438;2023-06-26T16:19:20;7.65;;;5.45;;
11655;SDS011;5884;43.618;1.438;2023-06-26T16:21:48;7.65;;;6.40;;
11655;SDS011;5884;43.618;1.438;2023-06-26T16:24:15;17.65;;;5.55;;
11655;SDS011;5884;43.618;1.438;2023-06-26T16:26:42;8.10;;;5.45;;
11655;SDS011;5884;43.618;1.438;2023-06-26T16:29:11;9.85;;;5.53;;
11655;SDS011;5884;43.618;1.438;2023-06-26T16:31:38;6.90;;;5.53;;
11655;SDS011;5884;43.618;1.438;2023-06-26T16:34:05;8.90;;;5.88;;
11655;SDS011;5884;43.618;1.438;2023-06-26T16:36:33;6.80;;;5.82;;
11655;SDS011;5884;43.618;1.438;2023-06-26T16:39:00;8.57;;;5.50;;
11655;SDS011;5884;43.618;1.438;2023-06-26T16:41:27;9.40;;;6.32;;
11655;SDS011;5884;43.618;1.438;2023-06-26T16:43:55;12.13;;;5.90;;
11655;SDS011;5884;43.618;1.438;2023-06-26T16:46:23;6.97;;;5.47;;
11655;SDS011;5884;43.618;1.438;2023-06-26T16:48:51;9.73;;;6.03;;
11655;SDS011;5884;43.618;1.438;2023-06-26T16:51:22;10.50;;;5.60;;
11655;SDS011;5884;43.618;1.438;2023-06-26T16:53:49;9.07;;;5.55;;
11655;SDS011;5884;43.618;1.438;2023-06-26T16:56:16;8.40;;;5.75;;
11655;SDS011;5884;43.618;1.438;2023-06-26T16:58:44;11.07;;;5.80;;
11655;SDS011;5884;43.618;1.438;2023-06-26T17:01:11;9.57;;;5.60;;
11655;SDS011;5884;43.618;1.438;2023-06-26T17:03:40;6.93;;;5.50;;
11655;SDS011;5884;43.618;1.438;2023-06-26T17:06:07;10.57;;;5.75;;
11655;SDS011;5884;43.618;1.438;2023-06-26T17:08:35;9.10;;;5.63;;
11655;SDS011;5884;43.618;1.438;2023-06-26T17:11:03;10.23;;;5.88;;
11655;SDS011;5884;43.618;1.438;2023-06-26T17:13:30;6.95;;;5.88;;
11655;SDS011;5884;43.618;1.438;2023-06-26T17:15:58;13.13;;;6.60;;
11655;SDS011;5884;43.618;1.438;2023-06-26T17:18:25;8.52;;;5.90;;
11655;SDS011;5884;43.618;1.438;2023-06-26T17:20:54;11.25;;;5.65;;
11655;SDS011;5884;43.618;1.438;2023-06-26T17:23:21;8.82;;;5.60;;
11655;SDS011;5884;43.618;1.438;2023-06-26T17:25:48;10.25;;;5.97;;
11655;SDS011;5884;43.618;1.438;2023-06-26T17:28:15;9.50;;;6.22;;
11655;SDS011;5884;43.618;1.438;2023-06-26T17:30:42;9.48;;;6.25;;
11655;SDS011;5884;43.618;1.438;2023-06-26T17:33:10;9.30;;;6.30;;
11655;SDS011;5884;43.618;1.438;2023-06-26T17:35:37;9.85;;;5.65;;
11655;SDS011;5884;43.618;1.438;2023-06-26T17:38:06;8.18;;;5.80;;
11655;SDS011;5884;43.618;1.438;2023-06-26T17:40:34;11.95;;;5.90;;
11655;SDS011;5884;43.618;1.438;2023-06-26T17:43:01;8.05;;;5.95;;
11655;SDS011;5884;43.618;1.438;2023-06-26T17:45:29;8.30;;;5.75;;
11655;SDS011;5884;43.618;1.438;2023-06-26T17:47:56;9.60;;;5.82;;
11655;SDS011;5884;43.618;1.438;2023-06-26T17:50:23;8.70;;;5.75;;
11655;SDS011;5884;43.618;1.438;2023-06-26T17:52:50;10.93;;;6.78;;
11655;SDS011;5884;43.618;1.438;2023-06-26T17:55:19;11.27;;;5.90;;
11655;SDS011;5884;43.618;1.438;2023-06-26T17:57:46;11.48;;;6.32;;
11655;SDS011;5884;43.618;1.438;2023-06-26T18:00:13;11.13;;;5.87;;
11655;SDS011;5884;43.618;1.438;2023-06-26T18:02:42;8.63;;;6.17;;
11655;SDS011;5884;43.618;1.438;2023-06-26T18:05:09;13.27;;;6.68;;
11655;SDS011;5884;43.618;1.438;2023-06-26T18:07:36;11.00;;;6.10;;
11655;SDS011;5884;43.618;1.438;2023-06-26T18:10:05;9.15;;;6.25;;
11655;SDS011;5884;43.618;1.438;2023-06-26T18:12:35;10.43;;;6.72;;
11655;SDS011;5884;43.618;1.438;2023-06-26T18:15:02;10.77;;;6.13;;
11655;SDS011;5884;43.618;1.438;2023-06-26T18:17:30;8.13;;;5.90;;
11655;SDS011;5884;43.618;1.438;2023-06-26T18:19:58;8.20;;;5.90;;
11655;SDS011;5884;43.618;1.438;2023-06-26T18:22:26;14.40;;;6.37;;
11655;SDS011;5884;43.618;1.438;2023-06-26T18:24:53;10.47;;;5.90;;
11655;SDS011;5884;43.618;1.438;2023-06-26T18:27:21;8.63;;;6.13;;
11655;SDS011;5884;43.618;1.438;2023-06-26T18:29:49;8.52;;;6.22;;
11655;SDS011;5884;43.618;1.438;2023-06-26T18:32:16;13.07;;;6.23;;
11655;SDS011;5884;43.618;1.438;2023-06-26T18:34:43;12.03;;;6.17;;
11655;SDS011;5884;43.618;1.438;2023-06-26T18:37:11;10.90;;;6.13;;
11655;SDS011;5884;43.618;1.438;2023-06-26T18:39:38;8.53;;;5.73;;
11655;SDS011;5884;43.618;1.438;2023-06-26T18:42:06;9.63;;;6.63;;
11655;SDS011;5884;43.618;1.438;2023-06-26T18:44:33;12.53;;;7.03;;
11655;SDS011;5884;43.618;1.438;2023-06-26T18:47:02;11.43;;;5.90;;
11655;SDS011;5884;43.618;1.438;2023-06-26T18:49:30;12.30;;;6.80;;
11655;SDS011;5884;43.618;1.438;2023-06-26T18:51:58;8.47;;;6.40;;
11655;SDS011;5884;43.618;1.438;2023-06-26T18:54:25;10.87;;;6.57;;
11655;SDS011;5884;43.618;1.438;2023-06-26T18:56:52;9.33;;;6.57;;
11655;SDS011;5884;43.618;1.438;2023-06-26T18:59:25;14.13;;;6.80;;
11655;SDS011;5884;43.618;1.438;2023-06-26T19:01:53;11.33;;;6.23;;
11655;SDS011;5884;43.618;1.438;2023-06-26T19:04:22;9.60;;;6.33;;
11655;SDS011;5884;43.618;1.438;2023-06-26T19:06:50;9.57;;;6.10;;
11655;SDS011;5884;43.618;1.438;2023-06-26T19:09:18;9.60;;;6.60;;
11655;SDS011;5884;43.618;1.438;2023-06-26T19:11:45;9.70;;;6.80;;
11655;SDS011;5884;43.618;1.438;2023-06-26T19:14:13;9.87;;;6.40;;
11655;SDS011;5884;43.618;1.438;2023-06-26T19:16:40;12.50;;;6.67;;
11655;SDS011;5884;43.618;1.438;2023-06-26T19:19:08;11.37;;;6.97;;
11655;SDS011;5884;43.618;1.438;2023-06-26T19:21:36;10.23;;;7.27;;
11655;SDS011;5884;43.618;1.438;2023-06-26T19:24:04;9.23;;;6.23;;
11655;SDS011;5884;43.618;1.438;2023-06-26T19:26:31;12.27;;;7.03;;
11655;SDS011;5884;43.618;1.438;2023-06-26T19:28:59;8.63;;;6.90;;
11655;SDS011;5884;43.618;1.438;2023-06-26T19:31:27;8.87;;;6.43;;
11655;SDS011;5884;43.618;1.438;2023-06-26T19:33:54;12.37;;;6.77;;
11655;SDS011;5884;43.618;1.438;2023-06-26T19:36:21;10.40;;;6.80;;
11655;SDS011;5884;43.618;1.438;2023-06-26T19:38:51;10.63;;;6.97;;
11655;SDS011;5884;43.618;1.438;2023-06-26T19:41:18;9.37;;;6.70;;
11655;SDS011;5884;43.618;1.438;2023-06-26T19:43:45;13.83;;;7.37;;
11655;SDS011;5884;43.618;1.438;2023-06-26T19:46:13;10.53;;;7.23;;
11655;SDS011;5884;43.618;1.438;2023-06-26T19:48:40;12.90;;;7.00;;